Sheridan, Pennsylvania
Current Conditions -  °F | °C
As of 10:53 AM on Wednesday 22 Oct 2014 (Local Time) from KLNS Reporting Station
Light Rain Light Rain  
Wind Chill: 54°   Ceiling: 2000
Heat Index: 54°   Visibility: 10mi
Dew Point: 50°   Wind: 9mph
Humidity: 86%   Direction: 10°N
Pressure: 29.95"   Gusts: NA
Location:  40.3035°N, 76.254°W
Report Text: KLNS 221453Z 01008KT 10SM -RA OVC020 12/10 A2995 RMK AO2 SLP140 P0000 60004 T01220100 51011
Loading
Personal Weather Stations






























Interactive Weather Map
Tropical Storm Tracking
New forecast layout! Learn more

10-Day Weather Forecast

Advertisements
Track Severe Weather on mobile